sensor_id;sensor_type;location;lat;lon;timestamp;P1;durP1;ratioP1;P2;durP2;ratioP2
32946;SDS011;54465;51.230;22.504;2024-02-15T00:00:20;15.18;;;8.95;;
32946;SDS011;54465;51.230;22.504;2024-02-15T00:05:22;13.85;;;8.45;;
32946;SDS011;54465;51.230;22.504;2024-02-15T00:10:24;16.73;;;8.98;;
32946;SDS011;54465;51.230;22.504;2024-02-15T00:15:25;15.18;;;8.50;;
32946;SDS011;54465;51.230;22.504;2024-02-15T00:20:25;18.77;;;9.85;;
32946;SDS011;54465;51.230;22.504;2024-02-15T00:25:26;19.67;;;9.95;;
32946;SDS011;54465;51.230;22.504;2024-02-15T00:30:26;18.02;;;9.30;;
32946;SDS011;54465;51.230;22.504;2024-02-15T00:35:27;16.15;;;9.20;;
32946;SDS011;54465;51.230;22.504;2024-02-15T00:40:28;18.85;;;9.23;;
32946;SDS011;54465;51.230;22.504;2024-02-15T00:45:28;15.90;;;8.63;;
32946;SDS011;54465;51.230;22.504;2024-02-15T00:50:29;15.88;;;8.60;;
32946;SDS011;54465;51.230;22.504;2024-02-15T00:55:30;13.73;;;7.85;;
32946;SDS011;54465;51.230;22.504;2024-02-15T01:00:30;12.40;;;7.60;;
32946;SDS011;54465;51.230;22.504;2024-02-15T01:05:31;17.67;;;8.40;;
32946;SDS011;54465;51.230;22.504;2024-02-15T01:10:31;16.35;;;8.27;;
32946;SDS011;54465;51.230;22.504;2024-02-15T01:15:34;15.63;;;8.18;;
32946;SDS011;54465;51.230;22.504;2024-02-15T01:20:37;11.65;;;6.60;;
32946;SDS011;54465;51.230;22.504;2024-02-15T01:25:38;12.02;;;7.22;;
32946;SDS011;54465;51.230;22.504;2024-02-15T01:30:40;14.55;;;7.20;;
32946;SDS011;54465;51.230;22.504;2024-02-15T01:35:43;18.65;;;7.75;;
32946;SDS011;54465;51.230;22.504;2024-02-15T01:40:46;11.32;;;6.63;;
32946;SDS011;54465;51.230;22.504;2024-02-15T01:45:47;11.32;;;6.32;;
32946;SDS011;54465;51.230;22.504;2024-02-15T01:50:48;9.98;;;6.72;;
32946;SDS011;54465;51.230;22.504;2024-02-15T01:55:49;16.48;;;6.88;;
32946;SDS011;54465;51.230;22.504;2024-02-15T02:00:49;11.65;;;6.85;;
32946;SDS011;54465;51.230;22.504;2024-02-15T02:05:50;11.40;;;6.00;;
32946;SDS011;54465;51.230;22.504;2024-02-15T02:10:51;10.38;;;6.18;;
32946;SDS011;54465;51.230;22.504;2024-02-15T02:15:52;12.27;;;5.93;;
32946;SDS011;54465;51.230;22.504;2024-02-15T02:20:52;11.45;;;5.90;;
32946;SDS011;54465;51.230;22.504;2024-02-15T02:25:54;8.88;;;5.90;;
32946;SDS011;54465;51.230;22.504;2024-02-15T02:30:55;9.18;;;6.05;;
32946;SDS011;54465;51.230;22.504;2024-02-15T02:35:56;7.53;;;5.07;;
32946;SDS011;54465;51.230;22.504;2024-02-15T02:40:57;8.25;;;5.03;;
32946;SDS011;54465;51.230;22.504;2024-02-15T02:45:58;9.40;;;5.07;;
32946;SDS011;54465;51.230;22.504;2024-02-15T02:50:58;9.70;;;4.55;;
32946;SDS011;54465;51.230;22.504;2024-02-15T02:55:59;9.23;;;4.53;;
32946;SDS011;54465;51.230;22.504;2024-02-15T03:01:00;9.35;;;4.32;;
32946;SDS011;54465;51.230;22.504;2024-02-15T03:06:01;8.35;;;4.15;;
32946;SDS011;54465;51.230;22.504;2024-02-15T03:11:02;5.95;;;3.63;;
32946;SDS011;54465;51.230;22.504;2024-02-15T03:16:03;6.32;;;3.90;;
32946;SDS011;54465;51.230;22.504;2024-02-15T03:21:05;8.98;;;4.15;;
32946;SDS011;54465;51.230;22.504;2024-02-15T03:26:07;6.60;;;3.88;;
32946;SDS011;54465;51.230;22.504;2024-02-15T03:31:08;5.88;;;3.63;;
32946;SDS011;54465;51.230;22.504;2024-02-15T03:36:09;6.97;;;3.50;;
32946;SDS011;54465;51.230;22.504;2024-02-15T03:41:12;6.03;;;3.83;;
32946;SDS011;54465;51.230;22.504;2024-02-15T03:46:12;6.55;;;3.42;;
32946;SDS011;54465;51.230;22.504;2024-02-15T03:51:16;4.97;;;3.28;;
32946;SDS011;54465;51.230;22.504;2024-02-15T03:56:21;4.40;;;3.47;;
32946;SDS011;54465;51.230;22.504;2024-02-15T04:01:22;7.60;;;4.05;;
32946;SDS011;54465;51.230;22.504;2024-02-15T04:06:23;5.75;;;3.63;;
32946;SDS011;54465;51.230;22.504;2024-02-15T04:11:25;4.95;;;3.70;;
32946;SDS011;54465;51.230;22.504;2024-02-15T04:16:26;6.30;;;4.03;;
32946;SDS011;54465;51.230;22.504;2024-02-15T04:21:26;5.40;;;3.33;;
32946;SDS011;54465;51.230;22.504;2024-02-15T04:26:27;8.20;;;4.38;;
32946;SDS011;54465;51.230;22.504;2024-02-15T04:31:30;7.13;;;4.35;;
32946;SDS011;54465;51.230;22.504;2024-02-15T04:36:32;7.05;;;4.35;;
32946;SDS011;54465;51.230;22.504;2024-02-15T04:41:34;7.10;;;4.35;;
32946;SDS011;54465;51.230;22.504;2024-02-15T04:46:34;7.60;;;3.75;;
32946;SDS011;54465;51.230;22.504;2024-02-15T04:51:35;6.30;;;3.78;;
32946;SDS011;54465;51.230;22.504;2024-02-15T04:56:37;6.97;;;3.58;;
32946;SDS011;54465;51.230;22.504;2024-02-15T05:01:37;8.25;;;3.83;;
32946;SDS011;54465;51.230;22.504;2024-02-15T05:06:38;5.90;;;3.67;;
32946;SDS011;54465;51.230;22.504;2024-02-15T05:11:39;5.25;;;3.75;;
32946;SDS011;54465;51.230;22.504;2024-02-15T05:16:47;9.93;;;4.13;;
32946;SDS011;54465;51.230;22.504;2024-02-15T05:21:48;6.63;;;3.85;;
32946;SDS011;54465;51.230;22.504;2024-02-15T05:26:49;7.50;;;3.85;;
32946;SDS011;54465;51.230;22.504;2024-02-15T05:31:50;6.30;;;3.47;;
32946;SDS011;54465;51.230;22.504;2024-02-15T05:36:52;5.60;;;3.97;;
32946;SDS011;54465;51.230;22.504;2024-02-15T05:41:52;8.05;;;3.55;;
32946;SDS011;54465;51.230;22.504;2024-02-15T05:46:53;7.05;;;3.58;;
32946;SDS011;54465;51.230;22.504;2024-02-15T05:51:53;5.97;;;3.58;;
32946;SDS011;54465;51.230;22.504;2024-02-15T05:56:54;5.35;;;3.72;;
32946;SDS011;54465;51.230;22.504;2024-02-15T06:01:55;5.65;;;3.38;;
32946;SDS011;54465;51.230;22.504;2024-02-15T06:06:56;6.47;;;3.70;;
32946;SDS011;54465;51.230;22.504;2024-02-15T06:12:00;5.30;;;3.25;;
32946;SDS011;54465;51.230;22.504;2024-02-15T06:17:01;5.30;;;3.80;;
32946;SDS011;54465;51.230;22.504;2024-02-15T06:22:02;5.07;;;3.30;;
32946;SDS011;54465;51.230;22.504;2024-02-15T06:27:04;4.97;;;3.22;;
32946;SDS011;54465;51.230;22.504;2024-02-15T06:32:06;4.55;;;2.95;;
32946;SDS011;54465;51.230;22.504;2024-02-15T06:37:37;4.93;;;3.42;;
32946;SDS011;54465;51.230;22.504;2024-02-15T06:42:56;5.75;;;3.17;;
32946;SDS011;54465;51.230;22.504;2024-02-15T06:47:57;6.47;;;3.92;;
32946;SDS011;54465;51.230;22.504;2024-02-15T06:52:58;4.78;;;3.03;;
32946;SDS011;54465;51.230;22.504;2024-02-15T06:58:00;4.85;;;3.03;;
32946;SDS011;54465;51.230;22.504;2024-02-15T07:03:00;7.07;;;3.15;;
32946;SDS011;54465;51.230;22.504;2024-02-15T07:08:01;6.25;;;3.25;;
32946;SDS011;54465;51.230;22.504;2024-02-15T07:13:02;5.47;;;2.70;;
32946;SDS011;54465;51.230;22.504;2024-02-15T07:18:04;7.32;;;3.03;;
32946;SDS011;54465;51.230;22.504;2024-02-15T07:23:06;7.07;;;3.42;;
32946;SDS011;54465;51.230;22.504;2024-02-15T07:28:07;6.47;;;3.20;;
32946;SDS011;54465;51.230;22.504;2024-02-15T07:33:08;6.30;;;3.70;;
32946;SDS011;54465;51.230;22.504;2024-02-15T07:38:09;5.97;;;3.35;;
32946;SDS011;54465;51.230;22.504;2024-02-15T07:43:10;5.70;;;3.33;;
32946;SDS011;54465;51.230;22.504;2024-02-15T07:48:11;5.72;;;3.20;;
32946;SDS011;54465;51.230;22.504;2024-02-15T07:53:11;5.22;;;3.00;;
32946;SDS011;54465;51.230;22.504;2024-02-15T07:58:13;6.15;;;2.92;;
32946;SDS011;54465;51.230;22.504;2024-02-15T08:03:14;6.75;;;3.40;;
32946;SDS011;54465;51.230;22.504;2024-02-15T08:08:15;4.38;;;2.72;;
32946;SDS011;54465;51.230;22.504;2024-02-15T08:13:16;5.97;;;2.95;;
32946;SDS011;54465;51.230;22.504;2024-02-15T08:18:17;4.30;;;2.63;;
32946;SDS011;54465;51.230;22.504;2024-02-15T08:23:18;5.38;;;3.30;;
32946;SDS011;54465;51.230;22.504;2024-02-15T08:28:19;8.65;;;3.00;;
32946;SDS011;54465;51.230;22.504;2024-02-15T08:33:20;4.25;;;2.67;;
32946;SDS011;54465;51.230;22.504;2024-02-15T08:38:24;7.20;;;2.70;;
32946;SDS011;54465;51.230;22.504;2024-02-15T08:43:25;5.07;;;2.60;;
32946;SDS011;54465;51.230;22.504;2024-02-15T08:48:26;6.82;;;3.05;;
32946;SDS011;54465;51.230;22.504;2024-02-15T08:53:27;6.45;;;3.22;;
32946;SDS011;54465;51.230;22.504;2024-02-15T08:58:28;4.13;;;2.90;;
32946;SDS011;54465;51.230;22.504;2024-02-15T09:03:30;4.45;;;3.20;;
32946;SDS011;54465;51.230;22.504;2024-02-15T09:08:30;4.13;;;2.75;;
32946;SDS011;54465;51.230;22.504;2024-02-15T09:13:31;4.43;;;3.03;;
32946;SDS011;54465;51.230;22.504;2024-02-15T09:18:33;6.75;;;2.80;;
32946;SDS011;54465;51.230;22.504;2024-02-15T09:23:35;7.43;;;3.30;;
32946;SDS011;54465;51.230;22.504;2024-02-15T09:28:36;3.47;;;2.67;;
32946;SDS011;54465;51.230;22.504;2024-02-15T09:33:36;7.30;;;3.35;;
32946;SDS011;54465;51.230;22.504;2024-02-15T09:38:37;5.07;;;2.97;;
32946;SDS011;54465;51.230;22.504;2024-02-15T09:43:38;5.43;;;3.30;;
32946;SDS011;54465;51.230;22.504;2024-02-15T09:48:38;4.13;;;2.80;;
32946;SDS011;54465;51.230;22.504;2024-02-15T09:53:40;3.38;;;2.75;;
32946;SDS011;54465;51.230;22.504;2024-02-15T09:58:41;7.03;;;3.38;;
32946;SDS011;54465;51.230;22.504;2024-02-15T10:03:43;5.65;;;2.80;;
32946;SDS011;54465;51.230;22.504;2024-02-15T10:08:44;4.75;;;3.47;;
32946;SDS011;54465;51.230;22.504;2024-02-15T10:13:45;6.38;;;2.85;;
32946;SDS011;54465;51.230;22.504;2024-02-15T10:18:46;5.55;;;3.25;;
32946;SDS011;54465;51.230;22.504;2024-02-15T10:23:47;7.22;;;2.95;;
32946;SDS011;54465;51.230;22.504;2024-02-15T10:28:49;5.30;;;3.40;;
32946;SDS011;54465;51.230;22.504;2024-02-15T10:34:06;4.35;;;3.20;;
32946;SDS011;54465;51.230;22.504;2024-02-15T10:39:25;5.78;;;3.10;;
32946;SDS011;54465;51.230;22.504;2024-02-15T10:44:28;6.85;;;3.33;;
32946;SDS011;54465;51.230;22.504;2024-02-15T10:49:28;3.53;;;2.50;;
32946;SDS011;54465;51.230;22.504;2024-02-15T10:59:56;5.00;;;2.88;;
32946;SDS011;54465;51.230;22.504;2024-02-15T11:05:01;4.57;;;3.40;;
32946;SDS011;54465;51.230;22.504;2024-02-15T11:10:05;6.43;;;3.17;;
32946;SDS011;54465;51.230;22.504;2024-02-15T11:15:11;5.10;;;3.38;;
32946;SDS011;54465;51.230;22.504;2024-02-15T11:25:35;4.00;;;2.63;;
32946;SDS011;54465;51.230;22.504;2024-02-15T11:30:42;6.72;;;3.17;;
32946;SDS011;54465;51.230;22.504;2024-02-15T11:41:05;5.32;;;2.90;;
32946;SDS011;54465;51.230;22.504;2024-02-15T11:46:06;6.60;;;2.78;;
32946;SDS011;54465;51.230;22.504;2024-02-15T11:51:10;7.28;;;2.85;;
32946;SDS011;54465;51.230;22.504;2024-02-15T11:56:11;4.68;;;3.03;;
32946;SDS011;54465;51.230;22.504;2024-02-15T12:01:16;5.07;;;3.10;;
32946;SDS011;54465;51.230;22.504;2024-02-15T12:06:36;6.10;;;3.05;;
32946;SDS011;54465;51.230;22.504;2024-02-15T12:11:58;5.25;;;3.10;;
32946;SDS011;54465;51.230;22.504;2024-02-15T12:17:17;4.55;;;2.83;;
32946;SDS011;54465;51.230;22.504;2024-02-15T12:22:46;5.15;;;3.20;;
32946;SDS011;54465;51.230;22.504;2024-02-15T12:27:54;4.53;;;2.92;;
32946;SDS011;54465;51.230;22.504;2024-02-15T12:32:59;7.03;;;2.88;;
32946;SDS011;54465;51.230;22.504;2024-02-15T12:38:13;4.63;;;3.00;;
32946;SDS011;54465;51.230;22.504;2024-02-15T12:43:16;6.15;;;3.00;;
32946;SDS011;54465;51.230;22.504;2024-02-15T12:48:20;5.70;;;3.17;;
32946;SDS011;54465;51.230;22.504;2024-02-15T12:53:21;6.13;;;3.40;;
32946;SDS011;54465;51.230;22.504;2024-02-15T12:58:22;5.15;;;2.95;;
32946;SDS011;54465;51.230;22.504;2024-02-15T13:03:27;4.78;;;3.35;;
32946;SDS011;54465;51.230;22.504;2024-02-15T13:08:28;5.78;;;2.65;;
32946;SDS011;54465;51.230;22.504;2024-02-15T13:13:29;7.03;;;3.63;;
32946;SDS011;54465;51.230;22.504;2024-02-15T13:18:29;6.15;;;3.55;;
32946;SDS011;54465;51.230;22.504;2024-02-15T13:23:30;8.10;;;3.58;;
32946;SDS011;54465;51.230;22.504;2024-02-15T13:28:31;6.70;;;2.97;;
32946;SDS011;54465;51.230;22.504;2024-02-15T13:33:32;5.60;;;2.88;;
32946;SDS011;54465;51.230;22.504;2024-02-15T13:38:34;4.53;;;2.88;;
32946;SDS011;54465;51.230;22.504;2024-02-15T13:43:37;5.43;;;3.30;;
32946;SDS011;54465;51.230;22.504;2024-02-15T13:48:39;5.07;;;3.03;;
32946;SDS011;54465;51.230;22.504;2024-02-15T13:53:40;7.28;;;3.60;;
32946;SDS011;54465;51.230;22.504;2024-02-15T13:58:40;4.45;;;2.47;;
32946;SDS011;54465;51.230;22.504;2024-02-15T14:03:41;7.88;;;3.03;;
32946;SDS011;54465;51.230;22.504;2024-02-15T14:08:41;7.25;;;3.25;;
32946;SDS011;54465;51.230;22.504;2024-02-15T14:13:42;5.97;;;3.38;;
32946;SDS011;54465;51.230;22.504;2024-02-15T14:18:43;6.43;;;3.20;;
32946;SDS011;54465;51.230;22.504;2024-02-15T14:23:45;7.90;;;3.47;;
32946;SDS011;54465;51.230;22.504;2024-02-15T14:28:45;5.40;;;3.08;;
32946;SDS011;54465;51.230;22.504;2024-02-15T14:33:47;4.70;;;3.20;;
32946;SDS011;54465;51.230;22.504;2024-02-15T14:38:50;5.82;;;3.08;;
32946;SDS011;54465;51.230;22.504;2024-02-15T14:43:52;6.53;;;2.92;;
32946;SDS011;54465;51.230;22.504;2024-02-15T14:48:54;4.97;;;3.20;;
32946;SDS011;54465;51.230;22.504;2024-02-15T14:53:57;6.88;;;3.53;;
32946;SDS011;54465;51.230;22.504;2024-02-15T14:58:59;6.28;;;3.88;;
32946;SDS011;54465;51.230;22.504;2024-02-15T15:04:01;6.50;;;3.67;;
32946;SDS011;54465;51.230;22.504;2024-02-15T15:09:05;7.70;;;3.45;;
32946;SDS011;54465;51.230;22.504;2024-02-15T15:14:24;6.43;;;3.05;;
32946;SDS011;54465;51.230;22.504;2024-02-15T15:19:25;7.80;;;3.15;;
32946;SDS011;54465;51.230;22.504;2024-02-15T15:24:27;5.05;;;2.72;;
32946;SDS011;54465;51.230;22.504;2024-02-15T15:29:27;5.25;;;3.42;;
32946;SDS011;54465;51.230;22.504;2024-02-15T15:34:28;8.85;;;3.17;;
32946;SDS011;54465;51.230;22.504;2024-02-15T15:39:30;7.60;;;3.55;;
32946;SDS011;54465;51.230;22.504;2024-02-15T15:44:33;5.50;;;3.33;;
32946;SDS011;54465;51.230;22.504;2024-02-15T15:49:34;6.63;;;3.92;;
32946;SDS011;54465;51.230;22.504;2024-02-15T15:54:35;7.13;;;4.13;;
32946;SDS011;54465;51.230;22.504;2024-02-15T15:59:35;9.65;;;4.32;;
32946;SDS011;54465;51.230;22.504;2024-02-15T16:04:42;7.20;;;4.40;;
32946;SDS011;54465;51.230;22.504;2024-02-15T16:09:44;9.13;;;4.70;;
32946;SDS011;54465;51.230;22.504;2024-02-15T16:14:48;10.18;;;5.03;;
32946;SDS011;54465;51.230;22.504;2024-02-15T16:19:49;6.88;;;4.38;;
32946;SDS011;54465;51.230;22.504;2024-02-15T16:24:50;8.55;;;4.85;;
32946;SDS011;54465;51.230;22.504;2024-02-15T16:29:51;7.20;;;4.05;;
32946;SDS011;54465;51.230;22.504;2024-02-15T16:34:51;8.65;;;4.03;;
32946;SDS011;54465;51.230;22.504;2024-02-15T16:39:52;8.13;;;4.35;;
32946;SDS011;54465;51.230;22.504;2024-02-15T16:44:53;10.23;;;4.82;;
32946;SDS011;54465;51.230;22.504;2024-02-15T16:49:53;7.50;;;4.50;;
32946;SDS011;54465;51.230;22.504;2024-02-15T16:54:54;7.70;;;4.40;;
32946;SDS011;54465;51.230;22.504;2024-02-15T16:59:54;6.80;;;4.20;;
32946;SDS011;54465;51.230;22.504;2024-02-15T17:04:56;8.48;;;4.68;;
32946;SDS011;54465;51.230;22.504;2024-02-15T17:09:56;6.07;;;3.60;;
32946;SDS011;54465;51.230;22.504;2024-02-15T17:14:57;6.22;;;4.47;;
32946;SDS011;54465;51.230;22.504;2024-02-15T17:19:58;7.65;;;4.20;;
32946;SDS011;54465;51.230;22.504;2024-02-15T17:24:59;5.60;;;3.90;;
32946;SDS011;54465;51.230;22.504;2024-02-15T17:30:11;7.35;;;4.25;;
32946;SDS011;54465;51.230;22.504;2024-02-15T17:35:12;7.13;;;4.15;;
32946;SDS011;54465;51.230;22.504;2024-02-15T17:40:17;9.05;;;4.47;;
32946;SDS011;54465;51.230;22.504;2024-02-15T17:45:17;8.45;;;4.22;;
32946;SDS011;54465;51.230;22.504;2024-02-15T17:50:18;7.47;;;4.38;;
32946;SDS011;54465;51.230;22.504;2024-02-15T17:55:22;7.55;;;4.55;;
32946;SDS011;54465;51.230;22.504;2024-02-15T18:00:23;9.95;;;4.65;;
32946;SDS011;54465;51.230;22.504;2024-02-15T18:05:25;7.78;;;4.07;;
32946;SDS011;54465;51.230;22.504;2024-02-15T18:10:26;7.35;;;4.03;;
32946;SDS011;54465;51.230;22.504;2024-02-15T18:15:26;7.03;;;4.32;;
32946;SDS011;54465;51.230;22.504;2024-02-15T18:20:32;7.43;;;4.10;;
32946;SDS011;54465;51.230;22.504;2024-02-15T18:25:32;5.75;;;4.13;;
32946;SDS011;54465;51.230;22.504;2024-02-15T18:30:33;7.05;;;3.85;;
32946;SDS011;54465;51.230;22.504;2024-02-15T18:35:45;9.20;;;5.03;;
32946;SDS011;54465;51.230;22.504;2024-02-15T18:40:46;6.82;;;3.72;;
32946;SDS011;54465;51.230;22.504;2024-02-15T18:45:47;7.63;;;4.35;;
32946;SDS011;54465;51.230;22.504;2024-02-15T18:50:47;7.85;;;4.43;;
32946;SDS011;54465;51.230;22.504;2024-02-15T18:55:48;6.22;;;4.20;;
32946;SDS011;54465;51.230;22.504;2024-02-15T19:00:49;6.85;;;3.92;;
32946;SDS011;54465;51.230;22.504;2024-02-15T19:05:50;6.07;;;3.85;;
32946;SDS011;54465;51.230;22.504;2024-02-15T19:10:51;6.82;;;4.25;;
32946;SDS011;54465;51.230;22.504;2024-02-15T19:15:51;6.70;;;3.63;;
32946;SDS011;54465;51.230;22.504;2024-02-15T19:20:55;7.55;;;4.40;;
32946;SDS011;54465;51.230;22.504;2024-02-15T19:25:56;6.75;;;3.60;;
32946;SDS011;54465;51.230;22.504;2024-02-15T19:30:57;7.43;;;4.03;;
32946;SDS011;54465;51.230;22.504;2024-02-15T19:35:58;6.18;;;4.15;;
32946;SDS011;54465;51.230;22.504;2024-02-15T19:40:59;5.28;;;4.03;;
32946;SDS011;54465;51.230;22.504;2024-02-15T19:45:59;5.25;;;3.58;;
32946;SDS011;54465;51.230;22.504;2024-02-15T19:51:01;7.57;;;4.10;;
32946;SDS011;54465;51.230;22.504;2024-02-15T19:56:01;10.88;;;3.97;;
32946;SDS011;54465;51.230;22.504;2024-02-15T20:01:03;5.88;;;3.50;;
32946;SDS011;54465;51.230;22.504;2024-02-15T20:06:04;8.18;;;3.75;;
32946;SDS011;54465;51.230;22.504;2024-02-15T20:11:05;7.82;;;4.18;;
32946;SDS011;54465;51.230;22.504;2024-02-15T20:16:06;7.07;;;4.13;;
32946;SDS011;54465;51.230;22.504;2024-02-15T20:21:07;8.75;;;4.40;;
32946;SDS011;54465;51.230;22.504;2024-02-15T20:26:10;7.22;;;4.53;;
32946;SDS011;54465;51.230;22.504;2024-02-15T20:31:11;8.25;;;5.18;;
32946;SDS011;54465;51.230;22.504;2024-02-15T20:36:12;6.97;;;4.55;;
32946;SDS011;54465;51.230;22.504;2024-02-15T20:41:12;9.07;;;5.47;;
32946;SDS011;54465;51.230;22.504;2024-02-15T20:46:14;8.68;;;5.55;;
32946;SDS011;54465;51.230;22.504;2024-02-15T20:51:25;12.05;;;5.90;;
32946;SDS011;54465;51.230;22.504;2024-02-15T20:56:26;9.85;;;5.63;;
32946;SDS011;54465;51.230;22.504;2024-02-15T21:01:27;11.07;;;6.20;;
32946;SDS011;54465;51.230;22.504;2024-02-15T21:06:29;11.57;;;6.57;;
32946;SDS011;54465;51.230;22.504;2024-02-15T21:11:32;11.30;;;7.30;;
32946;SDS011;54465;51.230;22.504;2024-02-15T21:16:32;12.57;;;8.27;;
32946;SDS011;54465;51.230;22.504;2024-02-15T21:21:33;13.90;;;8.52;;
32946;SDS011;54465;51.230;22.504;2024-02-15T21:26:35;15.02;;;9.05;;
32946;SDS011;54465;51.230;22.504;2024-02-15T21:31:41;12.93;;;8.60;;
32946;SDS011;54465;51.230;22.504;2024-02-15T21:36:46;15.75;;;9.23;;
32946;SDS011;54465;51.230;22.504;2024-02-15T21:41:48;13.63;;;7.82;;
32946;SDS011;54465;51.230;22.504;2024-02-15T21:46:49;13.73;;;8.45;;
32946;SDS011;54465;51.230;22.504;2024-02-15T21:51:50;13.70;;;8.18;;
32946;SDS011;54465;51.230;22.504;2024-02-15T21:56:51;13.70;;;8.27;;
32946;SDS011;54465;51.230;22.504;2024-02-15T22:01:52;18.92;;;9.10;;
32946;SDS011;54465;51.230;22.504;2024-02-15T22:06:55;14.55;;;8.52;;
32946;SDS011;54465;51.230;22.504;2024-02-15T22:11:55;12.35;;;7.68;;
32946;SDS011;54465;51.230;22.504;2024-02-15T22:16:56;12.45;;;7.53;;
32946;SDS011;54465;51.230;22.504;2024-02-15T22:21:58;14.02;;;8.20;;
32946;SDS011;54465;51.230;22.504;2024-02-15T22:26:58;11.68;;;7.38;;
32946;SDS011;54465;51.230;22.504;2024-02-15T22:31:59;14.35;;;8.73;;
32946;SDS011;54465;51.230;22.504;2024-02-15T22:37:00;13.25;;;8.02;;
32946;SDS011;54465;51.230;22.504;2024-02-15T22:42:01;13.43;;;7.20;;
32946;SDS011;54465;51.230;22.504;2024-02-15T22:47:01;14.00;;;7.63;;
32946;SDS011;54465;51.230;22.504;2024-02-15T22:52:02;13.10;;;7.28;;
32946;SDS011;54465;51.230;22.504;2024-02-15T22:57:04;14.13;;;6.60;;
32946;SDS011;54465;51.230;22.504;2024-02-15T23:02:05;11.18;;;7.07;;
32946;SDS011;54465;51.230;22.504;2024-02-15T23:07:09;12.25;;;7.80;;
32946;SDS011;54465;51.230;22.504;2024-02-15T23:12:10;11.75;;;7.30;;
32946;SDS011;54465;51.230;22.504;2024-02-15T23:17:10;15.18;;;8.52;;
32946;SDS011;54465;51.230;22.504;2024-02-15T23:22:11;14.50;;;7.57;;
32946;SDS011;54465;51.230;22.504;2024-02-15T23:27:13;10.40;;;6.78;;
32946;SDS011;54465;51.230;22.504;2024-02-15T23:32:14;9.75;;;6.65;;
32946;SDS011;54465;51.230;22.504;2024-02-15T23:37:15;13.23;;;6.90;;
32946;SDS011;54465;51.230;22.504;2024-02-15T23:42:34;11.55;;;6.68;;
32946;SDS011;54465;51.230;22.504;2024-02-15T23:47:34;12.20;;;6.57;;
32946;SDS011;54465;51.230;22.504;2024-02-15T23:52:35;11.77;;;7.38;;
32946;SDS011;54465;51.230;22.504;2024-02-15T23:57:37;10.10;;;6.13;;
